createdAt,value
2022-09-02T00:00:00.168Z,80.5
2022-09-02T00:05:00.210Z,80.1
2022-09-02T00:10:00.174Z,80.7
2022-09-02T00:15:00.179Z,80.7
2022-09-02T00:20:01.999Z,80.7
2022-09-02T00:25:01.853Z,81
2022-09-02T00:30:00.175Z,80.7
2022-09-02T00:35:02.595Z,81
2022-09-02T00:40:00.273Z,80.1
2022-09-02T00:50:00.159Z,80.7
2022-09-02T00:55:01.428Z,80.7
2022-09-02T01:00:08.035Z,80.7
2022-09-02T01:05:00.226Z,81
2022-09-02T01:25:06.269Z,80.7
2022-09-02T01:35:00.146Z,80.7
2022-09-02T01:40:00.201Z,80.3
2022-09-02T01:45:03.689Z,80
2022-09-02T01:50:12.776Z,80.3
2022-09-02T01:55:05.908Z,80.6
2022-09-02T02:05:00.773Z,80.9
2022-09-02T02:10:03.314Z,80.9
2022-09-02T02:15:00.113Z,81.2
2022-09-02T02:20:00.167Z,81.5
2022-09-02T02:30:00.248Z,81.5
2022-09-02T02:35:00.724Z,82.2
2022-09-02T02:45:00.153Z,82.4
2022-09-02T02:50:01.135Z,82.5
2022-09-02T03:00:00.161Z,82.7
2022-09-02T03:05:02.104Z,83.1
2022-09-02T03:10:00.182Z,83.1
2022-09-02T03:15:00.166Z,83.1
2022-09-02T03:20:00.237Z,83
2022-09-02T03:25:00.240Z,83
2022-09-02T03:30:00.304Z,83.1
2022-09-02T03:35:00.306Z,83.3
2022-09-02T03:40:00.178Z,83.4
2022-09-02T03:45:00.177Z,83.3
2022-09-02T03:50:00.215Z,83.6
2022-09-02T03:55:00.251Z,84
2022-09-02T04:00:00.308Z,84
2022-09-02T04:05:00.325Z,84.3
2022-09-02T04:10:00.233Z,83.9
2022-09-02T04:15:00.286Z,84.3
2022-09-02T04:20:00.274Z,84.2
2022-09-02T04:25:00.257Z,84.2
2022-09-02T04:30:00.263Z,84.2
2022-09-02T04:35:00.246Z,84.9
2022-09-02T04:40:00.182Z,84.9
2022-09-02T04:45:00.189Z,84.9
2022-09-02T04:50:00.192Z,84.9
2022-09-02T04:55:00.184Z,84.9
2022-09-02T05:00:00.218Z,84.9
2022-09-02T05:05:00.165Z,85.2
2022-09-02T05:10:00.234Z,84.9
2022-09-02T05:15:00.493Z,84.9
2022-09-02T05:20:00.190Z,84.6
2022-09-02T05:25:00.239Z,84.6
2022-09-02T05:30:00.210Z,84.9
2022-09-02T05:35:00.188Z,84.9
2022-09-02T05:40:03.278Z,84.9
2022-09-02T05:45:00.158Z,84.9
2022-09-02T05:55:00.172Z,84.9
2022-09-02T06:00:00.221Z,83.5
2022-09-02T06:05:05.246Z,84.3
2022-09-02T06:10:01.265Z,84.3
2022-09-02T06:15:02.916Z,84
2022-09-02T06:20:00.189Z,83.7
2022-09-02T06:25:00.243Z,83
2022-09-02T06:30:00.190Z,82.8
2022-09-02T06:35:00.167Z,82.9
2022-09-02T06:40:00.183Z,82.2
2022-09-02T06:45:00.175Z,82
2022-09-02T06:50:00.203Z,81.4
2022-09-02T06:55:00.195Z,81.1
2022-09-02T07:00:02.480Z,80.5
2022-09-02T07:05:00.189Z,80.2
2022-09-02T07:15:00.147Z,79.3
2022-09-02T07:20:00.191Z,79.6
2022-09-02T07:25:00.191Z,78.7
2022-09-02T07:30:00.190Z,79.2
2022-09-02T07:35:00.188Z,77.5
2022-09-02T07:40:00.173Z,77.2
2022-09-02T07:45:00.203Z,75.9
2022-09-02T07:50:18.974Z,75.4
2022-09-02T07:55:01.631Z,75.1
2022-09-02T08:00:00.204Z,75.5
2022-09-02T08:05:00.197Z,73.6
2022-09-02T08:10:06.213Z,73.7
2022-09-02T08:15:00.352Z,71.8
2022-09-02T08:20:00.198Z,72.2
2022-09-02T08:25:01.502Z,71.3
2022-09-02T08:30:00.163Z,70
2022-09-02T08:40:05.566Z,68.2
2022-09-02T08:45:00.190Z,66.9
2022-09-02T08:50:00.189Z,65.1
2022-09-02T08:55:00.415Z,65.7
2022-09-02T09:05:00.151Z,63.5
2022-09-02T09:10:00.226Z,63.6
2022-09-02T09:15:00.189Z,62.6
2022-09-02T09:20:01.230Z,62.3
2022-09-02T09:25:04.113Z,62
2022-09-02T09:30:01.612Z,61.4
2022-09-02T09:40:00.165Z,62.7
2022-09-02T09:50:00.220Z,62
2022-09-02T09:55:00.173Z,61.5
2022-09-02T10:00:00.230Z,60.7
2022-09-02T10:05:00.169Z,60.8
2022-09-02T10:10:00.287Z,60.1
2022-09-02T10:15:00.195Z,58.2
2022-09-02T10:20:00.181Z,57.1
2022-09-02T10:25:00.194Z,56.4
2022-09-02T10:30:00.171Z,58.2
2022-09-02T10:35:00.173Z,57.4
2022-09-02T10:40:00.162Z,58.2
2022-09-02T10:45:00.230Z,57.3
2022-09-02T10:50:00.212Z,57.6
2022-09-02T11:05:09.249Z,55.5
2022-09-02T11:10:00.330Z,57.4
2022-09-02T11:15:00.250Z,55.1
2022-09-02T11:20:00.239Z,56.4
2022-09-02T11:25:00.181Z,55.6
2022-09-02T11:30:00.212Z,52.7
2022-09-02T11:35:00.161Z,55.2
2022-09-02T11:40:17.282Z,54
2022-09-02T11:45:00.173Z,53.4
2022-09-02T11:50:00.175Z,53
2022-09-02T11:55:02.584Z,54
2022-09-02T12:00:00.188Z,52.8
2022-09-02T12:05:01.458Z,53.4
2022-09-02T12:10:00.201Z,54.1
2022-09-02T12:15:00.229Z,52.1
2022-09-02T12:20:00.189Z,54.7
2022-09-02T12:25:00.192Z,53.4
2022-09-02T12:30:00.195Z,52.8
2022-09-02T12:35:00.178Z,52.8
2022-09-02T12:40:00.162Z,52.8
2022-09-02T12:45:00.231Z,50.6
2022-09-02T12:50:00.159Z,51.2
2022-09-02T12:55:00.197Z,52.8
2022-09-02T13:00:00.253Z,51.9
2022-09-02T13:05:00.170Z,51.6
2022-09-02T13:10:00.216Z,50.3
2022-09-02T13:15:00.190Z,50.6
2022-09-02T13:20:06.089Z,51.6
2022-09-02T13:25:01.987Z,52.9
2022-09-02T13:30:03.062Z,52.2
2022-09-02T13:35:00.707Z,53.5
2022-09-02T13:40:00.181Z,50.3
2022-09-02T13:45:00.178Z,51.6
2022-09-02T14:10:00.176Z,49.6
2022-09-02T14:15:00.195Z,51.2
2022-09-02T14:20:02.072Z,52.2
2022-09-02T14:25:00.803Z,53.5
2022-09-02T14:30:02.343Z,52.2
2022-09-02T14:35:00.186Z,52.2
2022-09-02T14:40:00.343Z,53.5
2022-09-02T14:45:00.175Z,53.5
2022-09-02T14:50:00.285Z,51.6
2022-09-02T14:55:00.203Z,51.5
2022-09-02T15:00:00.226Z,53.5
2022-09-02T15:05:01.910Z,53.4
2022-09-02T15:10:00.174Z,52.8
2022-09-02T15:15:00.186Z,52.9
2022-09-02T15:20:00.184Z,52.9
2022-09-02T15:25:00.741Z,51.6
2022-09-02T15:30:00.195Z,50.8
2022-09-02T15:35:00.461Z,49.9
2022-09-02T15:40:03.437Z,52.2
2022-09-02T15:45:00.191Z,52.8
2022-09-02T15:50:08.961Z,54.7
2022-09-02T15:55:00.169Z,56
2022-09-02T16:00:00.209Z,57.3
2022-09-02T16:05:00.238Z,57.9
2022-09-02T16:10:03.604Z,59.2
2022-09-02T16:15:00.566Z,60.1
2022-09-02T16:20:00.171Z,61
2022-09-02T16:25:00.202Z,62.3
2022-09-02T16:30:00.186Z,63.6
2022-09-02T16:35:01.386Z,63.2
2022-09-02T16:40:00.334Z,63.8
2022-09-02T16:45:00.165Z,64.8
2022-09-02T16:50:00.207Z,64.1
2022-09-02T16:55:00.168Z,65.7
2022-09-02T17:00:00.205Z,66.7
2022-09-02T17:05:00.183Z,67.3
2022-09-02T17:10:00.178Z,67.6
2022-09-02T17:15:00.195Z,68.5
2022-09-02T17:20:00.194Z,68.8
2022-09-02T17:25:00.171Z,69.8
2022-09-02T17:30:00.219Z,70.4
2022-09-02T17:35:00.163Z,70.4
2022-09-02T17:40:00.328Z,71.1
2022-09-02T17:45:00.178Z,72.3
2022-09-02T17:50:00.195Z,73.6
2022-09-02T17:55:00.168Z,73.6
2022-09-02T18:00:00.195Z,72.9
2022-09-02T18:05:00.181Z,74.8
2022-09-02T18:10:00.171Z,76.1
2022-09-02T18:15:00.195Z,75.4
2022-09-02T18:20:00.201Z,76.7
2022-09-02T18:25:00.183Z,76.7
2022-09-02T18:30:00.189Z,77
2022-09-02T18:35:00.176Z,77.6
2022-09-02T18:40:02.853Z,77.3
2022-09-02T18:45:00.171Z,77.3
2022-09-02T18:50:00.175Z,77.9
2022-09-02T18:55:00.268Z,76.6
2022-09-02T19:00:00.166Z,77.9
2022-09-02T19:05:01.640Z,77.2
2022-09-02T19:10:00.281Z,76.6
2022-09-02T19:15:00.178Z,77.2
2022-09-02T19:20:00.212Z,76.9
2022-09-02T19:25:00.250Z,78.1
2022-09-02T19:30:00.265Z,78.5
2022-09-02T19:35:00.328Z,78.4
2022-09-02T19:40:03.871Z,79.4
2022-09-02T19:45:00.202Z,79.4
2022-09-02T19:50:00.296Z,79
2022-09-02T19:55:00.187Z,78.4
2022-09-02T20:00:00.193Z,78.3
2022-09-02T20:05:00.194Z,78.3
2022-09-02T20:10:00.185Z,78.3
2022-09-02T20:15:00.181Z,78.6
2022-09-02T20:20:00.172Z,78.6
2022-09-02T20:25:00.172Z,78.8
2022-09-02T20:30:00.186Z,79.1
2022-09-02T20:35:00.179Z,79.4
2022-09-02T20:40:00.297Z,79.4
2022-09-02T20:45:00.184Z,79.7
2022-09-02T20:50:00.170Z,80
2022-09-02T20:55:00.168Z,80.3
2022-09-02T21:00:00.198Z,80.9
2022-09-02T21:05:00.166Z,81.2
2022-09-02T21:10:00.170Z,82.1
2022-09-02T21:15:00.197Z,82.4
2022-09-02T21:20:00.225Z,82.7
2022-09-02T21:25:00.169Z,83
2022-09-02T21:30:02.600Z,82.7
2022-09-02T21:35:00.165Z,82.4
2022-09-02T21:40:00.280Z,82.4
2022-09-02T21:45:00.172Z,82.4
2022-09-02T21:50:00.178Z,82.7
2022-09-02T21:55:00.179Z,82.3
2022-09-02T22:00:00.194Z,83
2022-09-02T22:05:00.275Z,83
2022-09-02T22:10:00.174Z,82.3
2022-09-02T22:15:00.171Z,82.3
2022-09-02T22:20:00.187Z,83
2022-09-02T22:25:00.176Z,82.9
2022-09-02T22:30:00.193Z,83.2
2022-09-02T22:35:00.239Z,83.5
2022-09-02T22:40:00.356Z,84.2
2022-09-02T22:45:00.177Z,84.5
2022-09-02T22:50:00.176Z,84.4
2022-09-02T22:55:00.375Z,84.8
2022-09-02T23:00:02.186Z,84.1
2022-09-02T23:05:00.189Z,84.7
2022-09-02T23:10:00.180Z,84.7
2022-09-02T23:15:00.235Z,85
2022-09-02T23:20:00.209Z,85.3
2022-09-02T23:25:00.187Z,86.2
2022-09-02T23:30:00.206Z,87.1
2022-09-02T23:35:00.178Z,87.8
2022-09-02T23:40:00.356Z,87.1
2022-09-02T23:45:00.174Z,87.4
2022-09-02T23:50:00.183Z,87.4
2022-09-02T23:55:00.172Z,87.4
